createdAt,value
2023-05-01T00:00:02.216Z,3.50
2023-05-01T00:02:31.384Z,3.50
2023-05-01T00:04:59.041Z,3.47
2023-05-01T00:07:30.068Z,3.37
2023-05-01T00:09:58.891Z,3.20
2023-05-01T00:12:30.888Z,3.00
2023-05-01T00:14:58.789Z,3.33
2023-05-01T00:17:27.830Z,3.27
2023-05-01T00:19:55.934Z,2.93
2023-05-01T00:22:25.471Z,3.40
2023-05-01T00:24:57.384Z,3.30
2023-05-01T00:27:30.086Z,3.00
2023-05-01T00:30:00.520Z,2.90
2023-05-01T00:32:28.656Z,2.93
2023-05-01T00:35:03.853Z,3.10
2023-05-01T00:37:33.997Z,2.80
2023-05-01T00:40:01.421Z,2.70
2023-05-01T00:42:34.185Z,2.60
2023-05-01T00:45:01.673Z,2.40
2023-05-01T00:47:29.290Z,2.67
2023-05-01T00:49:57.321Z,3.00
2023-05-01T00:52:26.048Z,2.80
2023-05-01T00:54:53.876Z,2.80
2023-05-01T00:57:22.300Z,2.73
2023-05-01T00:59:49.971Z,2.83
2023-05-01T01:02:18.757Z,2.57
2023-05-01T01:04:48.786Z,2.80
2023-05-01T01:07:25.400Z,2.93
2023-05-01T01:10:18.611Z,2.77
2023-05-01T01:12:51.672Z,2.90
2023-05-01T01:15:59.869Z,2.60
2023-05-01T01:18:38.028Z,2.90
2023-05-01T01:21:23.516Z,2.53
2023-05-01T01:24:18.932Z,2.90
2023-05-01T01:27:02.819Z,2.70
2023-05-01T01:29:51.228Z,2.70
2023-05-01T01:32:34.776Z,2.47
2023-05-01T01:35:08.391Z,2.30
2023-05-01T01:38:10.259Z,2.80
2023-05-01T01:41:18.777Z,2.80
2023-05-01T01:43:59.111Z,2.50
2023-05-01T01:46:27.206Z,2.47
2023-05-01T01:48:58.108Z,2.20
2023-05-01T01:51:27.272Z,2.33
2023-05-01T01:54:01.446Z,2.70
2023-05-01T01:56:34.931Z,2.13
2023-05-01T01:59:07.249Z,2.33
2023-05-01T02:01:37.207Z,2.17
2023-05-01T02:04:05.756Z,2.30
2023-05-01T02:06:38.310Z,2.50
2023-05-01T02:09:07.837Z,2.27
2023-05-01T02:11:37.470Z,1.83
2023-05-01T02:14:07.256Z,1.97
2023-05-01T02:16:36.296Z,2.10
2023-05-01T02:19:05.520Z,2.10
2023-05-01T02:21:36.058Z,2.20
2023-05-01T02:24:05.705Z,2.20
2023-05-01T02:26:42.699Z,2.00
2023-05-01T02:29:11.056Z,2.20
2023-05-01T02:31:38.704Z,2.10
2023-05-01T02:34:06.333Z,2.07
2023-05-01T02:36:33.802Z,2.30
2023-05-01T02:39:03.977Z,2.37
2023-05-01T02:41:34.593Z,2.10
2023-05-01T02:44:06.008Z,2.27
2023-05-01T02:46:40.152Z,2.17
2023-05-01T02:49:08.102Z,2.03
2023-05-01T02:51:37.072Z,2.00
2023-05-01T02:54:05.104Z,2.10
2023-05-01T02:56:32.872Z,1.90
2023-05-01T02:59:00.850Z,2.00
2023-05-01T03:01:28.733Z,1.90
2023-05-01T03:03:56.325Z,2.00
2023-05-01T03:06:23.901Z,2.20
2023-05-01T03:08:51.761Z,2.10
2023-05-01T03:11:19.232Z,1.90
2023-05-01T03:13:47.845Z,2.20
2023-05-01T03:16:15.432Z,2.27
2023-05-01T03:18:43.067Z,2.00
2023-05-01T03:21:12.880Z,1.93
2023-05-01T03:23:40.474Z,2.00
2023-05-01T03:26:07.949Z,1.90
2023-05-01T03:28:35.436Z,2.13
2023-05-01T03:31:02.907Z,2.33
2023-05-01T03:33:31.793Z,2.10
2023-05-01T03:36:06.351Z,2.00
2023-05-01T03:38:34.105Z,1.87
2023-05-01T03:41:01.502Z,2.20
2023-05-01T03:43:29.195Z,2.23
2023-05-01T03:45:57.605Z,2.00
2023-05-01T03:48:25.240Z,1.80
2023-05-01T03:50:53.334Z,2.37
2023-05-01T03:53:20.803Z,2.07
2023-05-01T03:55:48.408Z,2.10
2023-05-01T03:58:15.909Z,1.63
2023-05-01T04:00:43.385Z,1.70
2023-05-01T04:03:14.020Z,2.13
2023-05-01T04:05:41.632Z,1.67
2023-05-01T04:08:09.171Z,1.90
2023-05-01T04:10:36.686Z,2.03
2023-05-01T04:13:05.117Z,1.80
2023-05-01T04:15:32.725Z,1.70
2023-05-01T04:18:00.414Z,1.93
2023-05-01T04:20:27.957Z,2.00
2023-05-01T04:22:55.466Z,2.00
2023-05-01T04:25:22.934Z,2.20
2023-05-01T04:27:50.749Z,2.17
2023-05-01T04:30:18.418Z,2.13
2023-05-01T04:32:45.972Z,2.30
2023-05-01T04:35:13.493Z,2.10
2023-05-01T04:37:40.919Z,2.23
2023-05-01T04:40:11.256Z,2.30
2023-05-01T04:42:39.494Z,2.20
2023-05-01T04:45:08.045Z,2.17
2023-05-01T04:47:35.854Z,2.13
2023-05-01T04:50:03.653Z,2.13
2023-05-01T04:52:31.104Z,2.10
2023-05-01T04:54:58.521Z,2.27
2023-05-01T04:57:26.172Z,2.03
2023-05-01T04:59:53.923Z,2.33
2023-05-01T05:02:21.509Z,2.40
2023-05-01T05:04:49.481Z,2.13
2023-05-01T05:07:16.993Z,2.37
2023-05-01T05:09:44.420Z,2.70
2023-05-01T05:12:12.242Z,2.40
2023-05-01T05:14:39.702Z,2.30
2023-05-01T05:17:07.340Z,2.60
2023-05-01T05:19:34.684Z,2.60
2023-05-01T05:22:05.922Z,2.30
2023-05-01T05:24:33.337Z,2.60
2023-05-01T05:27:00.650Z,2.87
2023-05-01T05:29:28.081Z,2.20
2023-05-01T05:31:57.359Z,2.30
2023-05-01T05:34:25.161Z,2.60
2023-05-01T05:36:53.791Z,2.50
2023-05-01T05:39:24.514Z,2.47
2023-05-01T05:41:54.006Z,2.77
2023-05-01T05:44:21.490Z,2.80
2023-05-01T05:46:48.901Z,2.70
2023-05-01T05:49:16.388Z,2.90
2023-05-01T05:51:43.864Z,2.90
2023-05-01T05:54:11.493Z,2.87
2023-05-01T05:56:43.035Z,2.60
2023-05-01T05:59:10.385Z,2.40
2023-05-01T06:01:38.052Z,2.47
2023-05-01T06:04:05.446Z,2.13
2023-05-01T06:06:34.472Z,2.20
2023-05-01T06:09:03.393Z,2.40
2023-05-01T06:11:30.833Z,2.47
2023-05-01T06:14:01.084Z,2.37
2023-05-01T06:16:28.797Z,2.30
2023-05-01T06:18:56.736Z,2.53
2023-05-01T06:21:25.330Z,2.63
2023-05-01T06:23:52.728Z,2.40
2023-05-01T06:26:20.088Z,2.10
2023-05-01T06:28:47.486Z,2.40
2023-05-01T06:31:14.957Z,2.60
2023-05-01T06:33:42.435Z,2.43
2023-05-01T06:36:10.003Z,2.33
2023-05-01T06:38:37.490Z,2.30
2023-05-01T06:41:06.132Z,2.50
2023-05-01T06:43:33.721Z,2.60
2023-05-01T06:46:01.720Z,2.70
2023-05-01T06:48:29.156Z,2.40
2023-05-01T06:50:56.911Z,2.30
2023-05-01T06:53:24.583Z,2.37
2023-05-01T06:55:51.969Z,2.20
2023-05-01T06:58:23.996Z,1.97
2023-05-01T07:00:53.182Z,2.17
2023-05-01T07:03:21.419Z,2.23
2023-05-01T07:05:50.120Z,2.13
2023-05-01T07:08:20.107Z,2.20
2023-05-01T07:10:49.869Z,2.38
2023-05-01T07:13:18.408Z,2.13
2023-05-01T07:15:46.052Z,1.88
2023-05-01T07:18:13.748Z,2.40
2023-05-01T07:20:41.639Z,1.80
2023-05-01T07:23:10.124Z,2.13
2023-05-01T07:25:37.949Z,2.10
2023-05-01T07:28:05.505Z,2.00
2023-05-01T07:30:33.598Z,1.88
2023-05-01T07:33:01.119Z,1.92
2023-05-01T07:35:28.791Z,1.65
2023-05-01T07:37:56.186Z,2.03
2023-05-01T07:40:23.520Z,1.90
2023-05-01T07:42:53.793Z,1.70
2023-05-01T07:45:22.111Z,2.08
2023-05-01T07:47:50.358Z,2.22
2023-05-01T07:50:18.389Z,1.80
2023-05-01T07:52:46.930Z,1.90
2023-05-01T07:55:14.639Z,2.10
2023-05-01T07:57:42.153Z,2.28
2023-05-01T08:00:10.139Z,1.77
2023-05-01T08:02:37.729Z,1.80
2023-05-01T08:05:05.523Z,2.10
2023-05-01T08:07:33.150Z,1.60
2023-05-01T08:10:00.986Z,1.77
2023-05-01T08:12:31.678Z,1.80
2023-05-01T08:15:00.850Z,2.03
2023-05-01T08:17:28.243Z,1.88
2023-05-01T08:19:57.095Z,1.90
2023-05-01T08:22:24.847Z,1.60
2023-05-01T08:24:52.480Z,2.33
2023-05-01T08:27:20.207Z,1.90
2023-05-01T08:29:47.676Z,1.70
2023-05-01T08:32:15.959Z,1.75
2023-05-01T08:34:43.429Z,1.92
2023-05-01T08:37:10.827Z,1.88
2023-05-01T08:39:38.149Z,1.90
2023-05-01T08:42:05.755Z,1.55
2023-05-01T08:44:34.604Z,1.83
2023-05-01T08:47:20.925Z,1.70
2023-05-01T08:49:51.106Z,1.83
2023-05-01T08:52:21.151Z,1.80
2023-05-01T08:54:50.953Z,1.75
2023-05-01T08:57:19.308Z,1.70
2023-05-01T08:59:48.501Z,2.00
2023-05-01T09:02:17.440Z,2.03
2023-05-01T09:04:45.918Z,2.05
2023-05-01T09:07:13.570Z,1.83
2023-05-01T09:09:41.176Z,2.10
2023-05-01T09:12:26.371Z,1.65
2023-05-01T09:14:55.637Z,1.73
2023-05-01T09:17:24.661Z,1.92
2023-05-01T09:19:56.518Z,2.20
2023-05-01T09:22:26.703Z,2.08
2023-05-01T09:24:55.182Z,2.05
2023-05-01T09:27:22.933Z,1.90
2023-05-01T09:29:50.322Z,2.00
2023-05-01T09:32:22.718Z,2.38
2023-05-01T09:34:54.559Z,1.85
2023-05-01T09:37:32.688Z,2.17
2023-05-01T09:40:12.225Z,2.35
2023-05-01T09:42:53.875Z,2.10
2023-05-01T09:45:24.494Z,1.80
2023-05-01T09:47:52.430Z,2.22
2023-05-01T09:50:34.714Z,2.30
2023-05-01T09:53:05.118Z,2.58
2023-05-01T09:55:36.646Z,2.20
2023-05-01T09:58:04.081Z,2.00
2023-05-01T10:00:47.573Z,1.50
2023-05-01T10:03:15.413Z,1.63
2023-05-01T10:05:46.661Z,1.67
2023-05-01T10:08:15.277Z,1.95
2023-05-01T10:10:47.293Z,2.10
2023-05-01T10:13:18.519Z,2.10
2023-05-01T10:15:48.964Z,2.20
2023-05-01T10:18:18.624Z,1.90
2023-05-01T10:20:46.565Z,2.25
2023-05-01T10:23:14.428Z,2.30
2023-05-01T10:25:42.664Z,2.20
2023-05-01T10:28:11.481Z,2.27
2023-05-01T10:30:40.441Z,2.20
2023-05-01T10:33:08.213Z,2.10
2023-05-01T10:35:40.362Z,2.40
2023-05-01T10:38:18.241Z,2.00
2023-05-01T10:40:47.371Z,1.90
2023-05-01T10:43:17.472Z,1.73
2023-05-01T10:45:46.495Z,1.97
2023-05-01T10:48:39.879Z,2.20
2023-05-01T10:51:11.653Z,2.20
2023-05-01T10:53:40.631Z,2.57
2023-05-01T10:56:26.175Z,3.60
2023-05-01T10:58:53.516Z,2.50
2023-05-01T11:01:40.569Z,7.20
2023-05-01T11:04:28.208Z,2.77
2023-05-01T11:07:11.650Z,2.20
2023-05-01T11:09:42.689Z,2.17
2023-05-01T11:12:11.948Z,2.30
2023-05-01T11:14:54.732Z,3.97
2023-05-01T11:17:43.472Z,3.73
2023-05-01T11:20:36.389Z,2.40
2023-05-01T11:23:07.322Z,2.17
2023-05-01T11:25:35.296Z,2.47
2023-05-01T11:28:04.382Z,2.83
2023-05-01T11:30:39.029Z,3.00
2023-05-01T11:33:10.097Z,2.67
2023-05-01T11:35:39.528Z,2.97
2023-05-01T11:38:06.769Z,2.80
2023-05-01T11:40:35.203Z,2.40
2023-05-01T11:43:07.407Z,2.37
2023-05-01T11:45:36.684Z,2.43
2023-05-01T11:48:05.258Z,29.30
2023-05-01T11:50:41.834Z,22.43
2023-05-01T11:53:17.480Z,5.23
2023-05-01T11:55:46.142Z,5.40
2023-05-01T11:58:18.123Z,4.20
2023-05-01T12:00:45.640Z,3.20
2023-05-01T12:03:14.906Z,5.07
2023-05-01T12:05:44.711Z,5.27
2023-05-01T12:08:20.974Z,3.40
2023-05-01T12:10:54.074Z,4.30
2023-05-01T12:13:22.035Z,3.10
2023-05-01T12:15:52.765Z,2.97
2023-05-01T12:18:21.804Z,2.90
2023-05-01T12:20:52.394Z,3.23
2023-05-01T12:23:31.721Z,6.10
2023-05-01T12:25:59.187Z,5.67
2023-05-01T12:28:27.824Z,4.07
2023-05-01T12:31:04.884Z,6.47
2023-05-01T12:33:33.587Z,6.87
2023-05-01T12:36:13.595Z,5.03
2023-05-01T12:38:41.059Z,5.87
2023-05-01T12:41:09.722Z,6.43
2023-05-01T12:43:38.522Z,3.60
2023-05-01T12:46:07.117Z,7.70
2023-05-01T12:48:39.534Z,9.20
2023-05-01T12:51:07.915Z,5.80
2023-05-01T12:53:35.618Z,8.93
2023-05-01T12:56:03.764Z,19.20
2023-05-01T12:58:38.432Z,7.40
2023-05-01T13:01:06.982Z,5.20
2023-05-01T13:03:37.659Z,5.67
2023-05-01T13:06:07.631Z,21.47
2023-05-01T13:08:42.518Z,13.57
2023-05-01T13:11:14.899Z,5.70
2023-05-01T13:13:46.502Z,50.27
2023-05-01T13:16:16.142Z,45.40
2023-05-01T13:18:52.223Z,18.40
2023-05-01T13:21:23.032Z,27.90
2023-05-01T13:24:01.485Z,23.13
2023-05-01T13:26:33.761Z,7.73
2023-05-01T13:29:04.196Z,26.13
2023-05-01T13:31:32.163Z,3.70
2023-05-01T13:34:00.734Z,16.40
2023-05-01T13:36:33.578Z,39.40
2023-05-01T13:39:01.325Z,20.03
2023-05-01T13:41:30.138Z,35.23
2023-05-01T13:43:58.193Z,10.93
2023-05-01T13:46:29.432Z,17.27
2023-05-01T13:49:09.913Z,11.10
2023-05-01T13:51:43.478Z,16.07
2023-05-01T13:54:12.718Z,29.63
2023-05-01T13:57:19.154Z,31.97
2023-05-01T13:59:48.470Z,13.33
2023-05-01T14:02:28.257Z,39.20
2023-05-01T14:04:59.299Z,7.57
2023-05-01T14:07:29.544Z,8.07
2023-05-01T14:10:00.351Z,5.63
2023-05-01T14:12:31.277Z,2.73
2023-05-01T14:15:03.211Z,1.50
2023-05-01T14:17:33.725Z,3.50
2023-05-01T14:20:02.771Z,2.50
2023-05-01T14:22:44.986Z,2.47
2023-05-01T14:25:21.629Z,1.77
2023-05-01T14:27:49.473Z,1.77
2023-05-01T14:30:26.909Z,1.23
2023-05-01T14:32:55.123Z,1.03
2023-05-01T14:35:24.698Z,1.47
2023-05-01T14:37:52.696Z,1.20
2023-05-01T14:40:28.437Z,1.40
2023-05-01T14:42:58.685Z,1.20
2023-05-01T14:45:26.628Z,13.33
2023-05-01T14:47:54.069Z,11.07
2023-05-01T14:50:24.137Z,6.73
2023-05-01T14:52:56.645Z,2.87
2023-05-01T14:55:29.595Z,1.83
2023-05-01T14:57:57.910Z,1.33
2023-05-01T15:00:28.451Z,1.30
2023-05-01T15:02:55.998Z,1.17
2023-05-01T15:05:26.609Z,1.47
2023-05-01T15:07:56.922Z,1.30
2023-05-01T15:10:25.230Z,1.20
2023-05-01T15:12:53.538Z,1.30
2023-05-01T15:15:21.530Z,1.30
2023-05-01T15:17:48.888Z,1.10
2023-05-01T15:20:16.534Z,1.60
2023-05-01T15:22:43.993Z,1.30
2023-05-01T15:25:11.906Z,1.10
2023-05-01T15:27:39.324Z,1.43
2023-05-01T15:30:07.293Z,1.43
2023-05-01T15:32:34.770Z,1.50
2023-05-01T15:35:02.122Z,1.33
2023-05-01T15:37:33.263Z,1.47
2023-05-01T15:40:00.941Z,1.60
2023-05-01T15:42:36.087Z,1.30
2023-05-01T15:45:03.737Z,1.50
2023-05-01T15:47:31.174Z,1.40
2023-05-01T15:49:58.628Z,1.37
2023-05-01T15:52:26.229Z,1.33
2023-05-01T15:54:55.060Z,1.70
2023-05-01T15:57:22.545Z,1.80
2023-05-01T15:59:54.160Z,2.10
2023-05-01T16:02:22.325Z,1.90
2023-05-01T16:04:52.226Z,2.10
2023-05-01T16:07:21.726Z,2.37
2023-05-01T16:09:52.574Z,1.70
2023-05-01T16:12:19.758Z,2.57
2023-05-01T16:14:51.146Z,2.27
2023-05-01T16:17:22.749Z,2.07
2023-05-01T16:19:50.117Z,2.20
2023-05-01T16:22:17.537Z,2.20
2023-05-01T16:24:45.233Z,2.13
2023-05-01T16:27:13.466Z,2.20
2023-05-01T16:29:41.111Z,2.17
2023-05-01T16:32:11.548Z,2.30
2023-05-01T16:34:40.499Z,2.17
2023-05-01T16:37:07.993Z,2.30
2023-05-01T16:39:40.652Z,2.27
2023-05-01T16:42:13.233Z,2.00
2023-05-01T16:44:40.963Z,2.10
2023-05-01T16:47:12.942Z,2.20
2023-05-01T16:49:46.964Z,2.27
2023-05-01T16:52:15.924Z,2.27
2023-05-01T16:54:43.321Z,2.13
2023-05-01T16:57:10.731Z,2.03
2023-05-01T16:59:38.314Z,2.30
2023-05-01T17:02:06.744Z,2.00
2023-05-01T17:04:34.819Z,2.30
2023-05-01T17:07:02.326Z,2.10
2023-05-01T17:09:30.696Z,2.03
2023-05-01T17:11:59.723Z,1.93
2023-05-01T17:14:29.028Z,2.00
2023-05-01T17:16:58.882Z,2.00
2023-05-01T17:19:26.666Z,2.37
2023-05-01T17:21:54.281Z,2.00
2023-05-01T17:24:22.973Z,2.00
2023-05-01T17:26:51.434Z,2.40
2023-05-01T17:29:18.882Z,2.53
2023-05-01T17:31:46.173Z,2.50
2023-05-01T17:34:13.463Z,2.87
2023-05-01T17:36:40.845Z,2.70
2023-05-01T17:39:11.722Z,2.90
2023-05-01T17:41:39.167Z,3.50
2023-05-01T17:44:06.572Z,3.53
2023-05-01T17:46:34.716Z,2.73
2023-05-01T17:49:02.439Z,2.90
2023-05-01T17:51:29.800Z,2.83
2023-05-01T17:53:57.637Z,2.90
2023-05-01T17:56:26.173Z,3.33
2023-05-01T17:58:54.514Z,3.40
2023-05-01T18:01:22.014Z,2.90
2023-05-01T18:03:49.991Z,3.30
2023-05-01T18:06:17.772Z,3.10
2023-05-01T18:08:45.080Z,3.40
2023-05-01T18:11:12.298Z,3.40
2023-05-01T18:13:40.132Z,3.40
2023-05-01T18:16:07.428Z,3.80
2023-05-01T18:18:34.662Z,3.73
2023-05-01T18:21:01.866Z,4.10
2023-05-01T18:23:29.373Z,4.20
2023-05-01T18:25:57.143Z,4.30
2023-05-01T18:28:24.437Z,4.30
2023-05-01T18:30:52.285Z,3.90
2023-05-01T18:33:21.755Z,4.93
2023-05-01T18:35:49.053Z,4.97
2023-05-01T18:38:16.571Z,4.13
2023-05-01T18:40:43.770Z,5.50
2023-05-01T18:43:12.516Z,5.60
2023-05-01T18:45:40.411Z,5.83
2023-05-01T18:48:08.612Z,7.50
2023-05-01T18:50:38.006Z,7.10
2023-05-01T18:53:06.896Z,7.40
2023-05-01T18:55:34.354Z,7.63
2023-05-01T18:58:02.453Z,8.07
2023-05-01T19:00:30.881Z,8.40
2023-05-01T19:02:58.311Z,8.10
2023-05-01T19:05:25.928Z,8.63
2023-05-01T19:07:55.438Z,8.07
2023-05-01T19:10:22.926Z,8.40
2023-05-01T19:12:50.248Z,8.47
2023-05-01T19:15:18.221Z,8.63
2023-05-01T19:17:45.872Z,8.80
2023-05-01T19:20:13.235Z,8.63
2023-05-01T19:22:40.558Z,8.20
2023-05-01T19:25:08.546Z,8.23
2023-05-01T19:27:36.106Z,8.10
2023-05-01T19:30:04.315Z,8.30
2023-05-01T19:32:31.698Z,8.93
2023-05-01T19:34:59.219Z,8.73
2023-05-01T19:37:28.321Z,9.43
2023-05-01T19:39:58.590Z,9.53
2023-05-01T19:42:26.352Z,8.73
2023-05-01T19:44:54.110Z,9.40
2023-05-01T19:47:21.653Z,8.63
2023-05-01T19:49:52.073Z,8.97
2023-05-01T19:52:19.878Z,8.77
2023-05-01T19:54:47.774Z,8.80
2023-05-01T19:57:16.584Z,9.63
2023-05-01T19:59:44.142Z,8.97
2023-05-01T20:02:11.680Z,9.20
2023-05-01T20:04:41.397Z,9.20
2023-05-01T20:07:08.881Z,9.47
2023-05-01T20:09:36.870Z,9.03
2023-05-01T20:12:04.409Z,9.03
2023-05-01T20:14:34.076Z,8.83
2023-05-01T20:17:02.037Z,8.63
2023-05-01T20:19:32.285Z,9.60
2023-05-01T20:21:59.592Z,9.40
2023-05-01T20:24:26.921Z,9.20
2023-05-01T20:26:56.094Z,9.73
2023-05-01T20:29:23.765Z,8.67
2023-05-01T20:31:54.240Z,8.83
2023-05-01T20:34:24.391Z,8.70
2023-05-01T20:36:52.417Z,8.70
2023-05-01T20:39:20.173Z,7.87
2023-05-01T20:41:47.939Z,7.97
2023-05-01T20:44:15.970Z,8.17
2023-05-01T20:46:44.303Z,8.33
2023-05-01T20:49:15.693Z,8.13
2023-05-01T20:51:44.132Z,7.93
2023-05-01T20:54:11.365Z,7.93
2023-05-01T20:56:41.056Z,7.90
2023-05-01T20:59:08.591Z,8.37
2023-05-01T21:01:35.923Z,7.50
2023-05-01T21:04:04.388Z,7.70
2023-05-01T21:06:32.649Z,7.60
2023-05-01T21:09:03.775Z,7.90
2023-05-01T21:11:31.153Z,7.33
2023-05-01T21:13:59.147Z,7.13
2023-05-01T21:16:28.264Z,7.40
2023-05-01T21:18:56.451Z,7.17
2023-05-01T21:21:25.120Z,7.60
2023-05-01T21:23:52.694Z,7.60
2023-05-01T21:26:20.253Z,7.17
2023-05-01T21:28:47.572Z,7.27
2023-05-01T21:31:16.388Z,7.17
2023-05-01T21:33:45.950Z,6.90
2023-05-01T21:36:18.443Z,6.77
2023-05-01T21:38:46.299Z,7.07
2023-05-01T21:41:15.793Z,7.43
2023-05-01T21:43:43.786Z,7.20
2023-05-01T21:46:18.657Z,7.80
2023-05-01T21:48:51.589Z,7.80
2023-05-01T21:51:19.310Z,7.53
2023-05-01T21:53:46.553Z,7.33
2023-05-01T21:56:14.843Z,7.10
2023-05-01T21:58:42.296Z,7.17
2023-05-01T22:01:12.060Z,6.23
2023-05-01T22:03:41.913Z,6.80
2023-05-01T22:06:11.316Z,6.90
2023-05-01T22:08:39.851Z,7.07
2023-05-01T22:11:10.156Z,6.90
2023-05-01T22:13:37.330Z,6.70
2023-05-01T22:16:04.981Z,5.83
2023-05-01T22:18:32.372Z,6.00
2023-05-01T22:21:01.429Z,6.10
2023-05-01T22:23:28.623Z,6.10
2023-05-01T22:26:00.384Z,5.90
2023-05-01T22:28:27.954Z,6.20
2023-05-01T22:30:55.473Z,5.80
2023-05-01T22:33:22.752Z,6.53
2023-05-01T22:35:50.145Z,6.13
2023-05-01T22:38:17.575Z,3.83
2023-05-01T22:40:45.133Z,2.73
2023-05-01T22:43:12.274Z,2.10
2023-05-01T22:45:39.736Z,1.83
2023-05-01T22:48:07.270Z,1.37
2023-05-01T22:50:34.798Z,1.10
2023-05-01T22:53:02.003Z,1.30
2023-05-01T22:55:29.321Z,0.80
2023-05-01T22:57:56.699Z,1.00
2023-05-01T23:00:24.156Z,0.80
2023-05-01T23:02:54.632Z,0.90
2023-05-01T23:05:22.573Z,0.80
2023-05-01T23:07:49.767Z,0.70
2023-05-01T23:10:17.360Z,0.50
2023-05-01T23:12:46.070Z,0.50
2023-05-01T23:15:17.154Z,0.30
2023-05-01T23:17:44.856Z,0.40
2023-05-01T23:20:15.757Z,0.30
2023-05-01T23:22:42.968Z,0.30
2023-05-01T23:25:14.054Z,0.30
2023-05-01T23:27:43.066Z,0.30
2023-05-01T23:30:10.874Z,0.30
2023-05-01T23:32:39.946Z,0.37
2023-05-01T23:35:21.764Z,0.20
2023-05-01T23:37:49.561Z,0.20
2023-05-01T23:40:19.829Z,0.30
2023-05-01T23:42:47.517Z,0.40
2023-05-01T23:45:15.292Z,0.27
2023-05-01T23:47:42.575Z,0.30
2023-05-01T23:50:10.294Z,0.40
2023-05-01T23:52:37.628Z,0.33
2023-05-01T23:55:05.102Z,0.40
2023-05-01T23:57:32.417Z,0.60
2023-05-01T23:59:59.903Z,0.40
